sensor_id;sensor_type;location;lat;lon;timestamp;P1;durP1;ratioP1;P2;durP2;ratioP2
846;SDS011;410;48.954;9.474;2024-01-15T00:02:00;35.47;;;16.08;;
846;SDS011;410;48.954;9.474;2024-01-15T00:04:03;32.72;;;13.20;;
846;SDS011;410;48.954;9.474;2024-01-15T00:06:06;31.38;;;13.20;;
846;SDS011;410;48.954;9.474;2024-01-15T00:08:10;28.00;;;12.98;;
846;SDS011;410;48.954;9.474;2024-01-15T00:10:14;31.35;;;13.32;;
846;SDS011;410;48.954;9.474;2024-01-15T00:12:17;32.67;;;12.85;;
846;SDS011;410;48.954;9.474;2024-01-15T00:14:20;31.80;;;12.27;;
846;SDS011;410;48.954;9.474;2024-01-15T00:16:23;30.85;;;12.43;;
846;SDS011;410;48.954;9.474;2024-01-15T00:18:26;27.15;;;12.15;;
846;SDS011;410;48.954;9.474;2024-01-15T00:20:29;28.70;;;11.90;;
846;SDS011;410;48.954;9.474;2024-01-15T00:22:32;29.33;;;12.00;;
846;SDS011;410;48.954;9.474;2024-01-15T00:24:37;29.50;;;12.52;;
846;SDS011;410;48.954;9.474;2024-01-15T00:26:41;31.52;;;12.27;;
846;SDS011;410;48.954;9.474;2024-01-15T00:28:44;29.58;;;11.57;;
846;SDS011;410;48.954;9.474;2024-01-15T00:30:47;27.95;;;11.80;;
846;SDS011;410;48.954;9.474;2024-01-15T00:32:51;26.98;;;12.20;;
846;SDS011;410;48.954;9.474;2024-01-15T00:34:55;25.15;;;11.45;;
846;SDS011;410;48.954;9.474;2024-01-15T00:36:58;27.65;;;11.27;;
846;SDS011;410;48.954;9.474;2024-01-15T00:39:01;32.85;;;12.50;;
846;SDS011;410;48.954;9.474;2024-01-15T00:41:06;33.58;;;13.30;;
846;SDS011;410;48.954;9.474;2024-01-15T00:43:11;26.90;;;11.65;;
846;SDS011;410;48.954;9.474;2024-01-15T00:45:14;26.80;;;11.07;;
846;SDS011;410;48.954;9.474;2024-01-15T00:47:18;26.33;;;12.15;;
846;SDS011;410;48.954;9.474;2024-01-15T00:49:21;32.15;;;12.45;;
846;SDS011;410;48.954;9.474;2024-01-15T00:51:24;27.27;;;11.05;;
846;SDS011;410;48.954;9.474;2024-01-15T00:53:28;29.27;;;12.50;;
846;SDS011;410;48.954;9.474;2024-01-15T00:55:31;28.50;;;12.20;;
846;SDS011;410;48.954;9.474;2024-01-15T00:57:34;25.85;;;12.52;;
846;SDS011;410;48.954;9.474;2024-01-15T00:59:38;26.38;;;11.65;;
846;SDS011;410;48.954;9.474;2024-01-15T01:01:42;28.88;;;12.20;;
846;SDS011;410;48.954;9.474;2024-01-15T01:03:45;28.65;;;12.77;;
846;SDS011;410;48.954;9.474;2024-01-15T01:05:48;28.80;;;11.43;;
846;SDS011;410;48.954;9.474;2024-01-15T01:07:51;26.90;;;11.50;;
846;SDS011;410;48.954;9.474;2024-01-15T01:09:53;32.15;;;12.48;;
846;SDS011;410;48.954;9.474;2024-01-15T01:11:57;28.17;;;12.00;;
846;SDS011;410;48.954;9.474;2024-01-15T01:14:00;29.90;;;12.07;;
846;SDS011;410;48.954;9.474;2024-01-15T01:16:06;28.35;;;12.05;;
846;SDS011;410;48.954;9.474;2024-01-15T01:18:10;27.23;;;11.30;;
846;SDS011;410;48.954;9.474;2024-01-15T01:20:13;23.38;;;10.88;;
846;SDS011;410;48.954;9.474;2024-01-15T01:22:20;29.85;;;12.02;;
846;SDS011;410;48.954;9.474;2024-01-15T01:24:23;31.55;;;12.73;;
846;SDS011;410;48.954;9.474;2024-01-15T01:26:25;29.15;;;11.77;;
846;SDS011;410;48.954;9.474;2024-01-15T01:28:28;29.40;;;12.43;;
846;SDS011;410;48.954;9.474;2024-01-15T01:30:31;26.98;;;10.77;;
846;SDS011;410;48.954;9.474;2024-01-15T01:32:36;26.23;;;11.70;;
846;SDS011;410;48.954;9.474;2024-01-15T01:34:39;23.40;;;10.32;;
846;SDS011;410;48.954;9.474;2024-01-15T01:36:44;24.95;;;10.63;;
846;SDS011;410;48.954;9.474;2024-01-15T01:38:47;25.20;;;12.07;;
846;SDS011;410;48.954;9.474;2024-01-15T01:40:50;28.35;;;11.90;;
846;SDS011;410;48.954;9.474;2024-01-15T01:42:53;27.60;;;11.82;;
846;SDS011;410;48.954;9.474;2024-01-15T01:44:56;25.08;;;11.10;;
846;SDS011;410;48.954;9.474;2024-01-15T01:46:59;32.40;;;13.10;;
846;SDS011;410;48.954;9.474;2024-01-15T01:49:03;24.15;;;11.10;;
846;SDS011;410;48.954;9.474;2024-01-15T01:51:08;25.83;;;11.82;;
846;SDS011;410;48.954;9.474;2024-01-15T01:53:11;26.20;;;11.65;;
846;SDS011;410;48.954;9.474;2024-01-15T01:55:14;24.63;;;11.07;;
846;SDS011;410;48.954;9.474;2024-01-15T01:57:18;26.83;;;11.05;;
846;SDS011;410;48.954;9.474;2024-01-15T01:59:21;22.25;;;10.30;;
846;SDS011;410;48.954;9.474;2024-01-15T02:01:25;23.40;;;10.00;;
846;SDS011;410;48.954;9.474;2024-01-15T02:03:29;25.90;;;11.35;;
846;SDS011;410;48.954;9.474;2024-01-15T02:05:34;27.13;;;10.50;;
846;SDS011;410;48.954;9.474;2024-01-15T02:07:38;26.88;;;11.38;;
846;SDS011;410;48.954;9.474;2024-01-15T02:09:41;24.83;;;10.80;;
846;SDS011;410;48.954;9.474;2024-01-15T02:11:45;20.05;;;9.95;;
846;SDS011;410;48.954;9.474;2024-01-15T02:13:49;24.73;;;10.68;;
846;SDS011;410;48.954;9.474;2024-01-15T02:15:52;27.70;;;11.35;;
846;SDS011;410;48.954;9.474;2024-01-15T02:17:59;22.55;;;11.25;;
846;SDS011;410;48.954;9.474;2024-01-15T02:20:03;22.25;;;10.57;;
846;SDS011;410;48.954;9.474;2024-01-15T02:22:08;24.67;;;10.20;;
846;SDS011;410;48.954;9.474;2024-01-15T02:24:13;26.13;;;12.35;;
846;SDS011;410;48.954;9.474;2024-01-15T02:26:16;25.30;;;10.25;;
846;SDS011;410;48.954;9.474;2024-01-15T02:28:19;25.90;;;11.52;;
846;SDS011;410;48.954;9.474;2024-01-15T02:30:22;26.25;;;11.20;;
846;SDS011;410;48.954;9.474;2024-01-15T02:32:27;26.88;;;10.45;;
846;SDS011;410;48.954;9.474;2024-01-15T02:34:31;22.63;;;10.82;;
846;SDS011;410;48.954;9.474;2024-01-15T02:36:34;23.08;;;10.65;;
846;SDS011;410;48.954;9.474;2024-01-15T02:38:37;25.95;;;11.55;;
846;SDS011;410;48.954;9.474;2024-01-15T02:40:42;27.30;;;12.05;;
846;SDS011;410;48.954;9.474;2024-01-15T02:42:46;24.25;;;11.20;;
846;SDS011;410;48.954;9.474;2024-01-15T02:44:49;26.80;;;10.68;;
846;SDS011;410;48.954;9.474;2024-01-15T02:46:52;24.63;;;9.73;;
846;SDS011;410;48.954;9.474;2024-01-15T02:48:55;26.30;;;11.52;;
846;SDS011;410;48.954;9.474;2024-01-15T02:50:58;22.90;;;10.93;;
846;SDS011;410;48.954;9.474;2024-01-15T02:53:01;28.30;;;11.80;;
846;SDS011;410;48.954;9.474;2024-01-15T02:55:05;26.33;;;11.50;;
846;SDS011;410;48.954;9.474;2024-01-15T02:57:09;24.60;;;11.45;;
846;SDS011;410;48.954;9.474;2024-01-15T02:59:12;26.33;;;11.30;;
846;SDS011;410;48.954;9.474;2024-01-15T03:01:18;25.95;;;11.38;;
846;SDS011;410;48.954;9.474;2024-01-15T03:03:21;24.17;;;10.30;;
846;SDS011;410;48.954;9.474;2024-01-15T03:05:24;25.23;;;11.38;;
846;SDS011;410;48.954;9.474;2024-01-15T03:07:28;29.58;;;12.32;;
846;SDS011;410;48.954;9.474;2024-01-15T03:09:30;23.60;;;10.95;;
846;SDS011;410;48.954;9.474;2024-01-15T03:11:36;28.30;;;11.52;;
846;SDS011;410;48.954;9.474;2024-01-15T03:13:41;23.77;;;10.68;;
846;SDS011;410;48.954;9.474;2024-01-15T03:15:44;26.90;;;11.70;;
846;SDS011;410;48.954;9.474;2024-01-15T03:17:47;26.75;;;11.50;;
846;SDS011;410;48.954;9.474;2024-01-15T03:19:50;23.73;;;11.15;;
846;SDS011;410;48.954;9.474;2024-01-15T03:21:54;28.45;;;11.15;;
846;SDS011;410;48.954;9.474;2024-01-15T03:23:57;27.58;;;12.55;;
846;SDS011;410;48.954;9.474;2024-01-15T03:26:00;23.80;;;10.35;;
846;SDS011;410;48.954;9.474;2024-01-15T03:28:03;23.20;;;10.23;;
846;SDS011;410;48.954;9.474;2024-01-15T03:30:08;26.45;;;11.82;;
846;SDS011;410;48.954;9.474;2024-01-15T03:32:12;25.00;;;11.00;;
846;SDS011;410;48.954;9.474;2024-01-15T03:34:14;25.83;;;11.27;;
846;SDS011;410;48.954;9.474;2024-01-15T03:36:17;22.85;;;10.88;;
846;SDS011;410;48.954;9.474;2024-01-15T03:38:22;24.35;;;11.10;;
846;SDS011;410;48.954;9.474;2024-01-15T03:40:25;26.48;;;12.02;;
846;SDS011;410;48.954;9.474;2024-01-15T03:42:28;25.60;;;11.93;;
846;SDS011;410;48.954;9.474;2024-01-15T03:44:32;23.20;;;11.52;;
846;SDS011;410;48.954;9.474;2024-01-15T03:46:36;23.27;;;11.20;;
846;SDS011;410;48.954;9.474;2024-01-15T03:48:38;26.25;;;11.15;;
846;SDS011;410;48.954;9.474;2024-01-15T03:50:42;24.85;;;10.05;;
846;SDS011;410;48.954;9.474;2024-01-15T03:52:45;22.75;;;11.18;;
846;SDS011;410;48.954;9.474;2024-01-15T03:54:48;25.13;;;11.40;;
846;SDS011;410;48.954;9.474;2024-01-15T03:56:51;22.90;;;10.70;;
846;SDS011;410;48.954;9.474;2024-01-15T03:58:53;28.65;;;11.50;;
846;SDS011;410;48.954;9.474;2024-01-15T04:00:56;23.33;;;10.57;;
846;SDS011;410;48.954;9.474;2024-01-15T04:03:01;25.60;;;11.38;;
846;SDS011;410;48.954;9.474;2024-01-15T04:05:04;23.38;;;10.00;;
846;SDS011;410;48.954;9.474;2024-01-15T04:07:08;23.85;;;11.02;;
846;SDS011;410;48.954;9.474;2024-01-15T04:09:11;26.60;;;10.50;;
846;SDS011;410;48.954;9.474;2024-01-15T04:11:15;23.77;;;10.75;;
846;SDS011;410;48.954;9.474;2024-01-15T04:13:18;28.50;;;11.77;;
846;SDS011;410;48.954;9.474;2024-01-15T04:15:21;25.10;;;10.93;;
846;SDS011;410;48.954;9.474;2024-01-15T04:17:24;26.58;;;12.02;;
846;SDS011;410;48.954;9.474;2024-01-15T04:19:29;22.48;;;9.82;;
846;SDS011;410;48.954;9.474;2024-01-15T04:21:32;25.25;;;10.65;;
846;SDS011;410;48.954;9.474;2024-01-15T04:23:35;26.08;;;11.30;;
846;SDS011;410;48.954;9.474;2024-01-15T04:25:38;22.35;;;10.73;;
846;SDS011;410;48.954;9.474;2024-01-15T04:27:44;20.88;;;10.05;;
846;SDS011;410;48.954;9.474;2024-01-15T04:29:47;21.73;;;10.63;;
846;SDS011;410;48.954;9.474;2024-01-15T04:31:51;21.15;;;9.82;;
846;SDS011;410;48.954;9.474;2024-01-15T04:33:55;21.08;;;9.82;;
846;SDS011;410;48.954;9.474;2024-01-15T04:36:02;20.58;;;9.77;;
846;SDS011;410;48.954;9.474;2024-01-15T04:38:06;27.70;;;11.55;;
846;SDS011;410;48.954;9.474;2024-01-15T04:40:09;29.40;;;11.02;;
846;SDS011;410;48.954;9.474;2024-01-15T04:42:13;22.38;;;11.30;;
846;SDS011;410;48.954;9.474;2024-01-15T04:44:15;23.63;;;11.02;;
846;SDS011;410;48.954;9.474;2024-01-15T04:46:20;25.60;;;11.32;;
846;SDS011;410;48.954;9.474;2024-01-15T04:48:23;21.90;;;9.85;;
846;SDS011;410;48.954;9.474;2024-01-15T04:50:26;24.10;;;11.25;;
846;SDS011;410;48.954;9.474;2024-01-15T04:52:31;18.98;;;9.68;;
846;SDS011;410;48.954;9.474;2024-01-15T04:54:34;21.00;;;9.65;;
846;SDS011;410;48.954;9.474;2024-01-15T04:56:37;23.63;;;10.32;;
846;SDS011;410;48.954;9.474;2024-01-15T04:58:40;25.13;;;10.25;;
846;SDS011;410;48.954;9.474;2024-01-15T05:00:43;24.73;;;10.63;;
846;SDS011;410;48.954;9.474;2024-01-15T05:02:47;21.92;;;9.63;;
846;SDS011;410;48.954;9.474;2024-01-15T05:04:50;23.23;;;10.48;;
846;SDS011;410;48.954;9.474;2024-01-15T05:06:53;21.38;;;9.40;;
846;SDS011;410;48.954;9.474;2024-01-15T05:08:58;19.75;;;9.88;;
846;SDS011;410;48.954;9.474;2024-01-15T05:11:01;21.23;;;9.85;;
846;SDS011;410;48.954;9.474;2024-01-15T05:13:04;22.90;;;10.32;;
846;SDS011;410;48.954;9.474;2024-01-15T05:15:06;21.75;;;9.32;;
846;SDS011;410;48.954;9.474;2024-01-15T05:17:11;24.80;;;10.77;;
846;SDS011;410;48.954;9.474;2024-01-15T05:19:14;18.20;;;9.18;;
846;SDS011;410;48.954;9.474;2024-01-15T05:21:18;23.23;;;9.98;;
846;SDS011;410;48.954;9.474;2024-01-15T05:23:21;21.23;;;9.30;;
846;SDS011;410;48.954;9.474;2024-01-15T05:25:25;19.27;;;8.38;;
846;SDS011;410;48.954;9.474;2024-01-15T05:27:29;18.85;;;8.77;;
846;SDS011;410;48.954;9.474;2024-01-15T05:29:32;17.77;;;8.40;;
846;SDS011;410;48.954;9.474;2024-01-15T05:31:35;22.15;;;10.23;;
846;SDS011;410;48.954;9.474;2024-01-15T05:33:38;18.13;;;9.43;;
846;SDS011;410;48.954;9.474;2024-01-15T05:35:42;20.95;;;10.38;;
846;SDS011;410;48.954;9.474;2024-01-15T05:37:45;21.45;;;9.88;;
846;SDS011;410;48.954;9.474;2024-01-15T05:39:49;19.58;;;9.60;;
846;SDS011;410;48.954;9.474;2024-01-15T05:41:52;20.98;;;9.65;;
846;SDS011;410;48.954;9.474;2024-01-15T05:43:55;22.05;;;9.95;;
846;SDS011;410;48.954;9.474;2024-01-15T05:45:58;21.85;;;10.40;;
846;SDS011;410;48.954;9.474;2024-01-15T05:48:01;22.60;;;9.50;;
846;SDS011;410;48.954;9.474;2024-01-15T05:50:04;22.75;;;9.90;;
846;SDS011;410;48.954;9.474;2024-01-15T05:52:08;23.38;;;10.88;;
846;SDS011;410;48.954;9.474;2024-01-15T05:54:11;20.02;;;10.48;;
846;SDS011;410;48.954;9.474;2024-01-15T05:56:13;21.10;;;9.52;;
846;SDS011;410;48.954;9.474;2024-01-15T05:58:18;25.15;;;10.68;;
846;SDS011;410;48.954;9.474;2024-01-15T06:00:21;24.10;;;10.77;;
846;SDS011;410;48.954;9.474;2024-01-15T06:02:24;19.27;;;10.30;;
846;SDS011;410;48.954;9.474;2024-01-15T06:04:27;23.02;;;11.05;;
846;SDS011;410;48.954;9.474;2024-01-15T06:06:30;20.17;;;10.30;;
846;SDS011;410;48.954;9.474;2024-01-15T06:08:33;24.77;;;11.50;;
846;SDS011;410;48.954;9.474;2024-01-15T06:10:36;30.38;;;16.00;;
846;SDS011;410;48.954;9.474;2024-01-15T06:12:39;23.40;;;10.95;;
846;SDS011;410;48.954;9.474;2024-01-15T06:14:44;25.25;;;13.70;;
846;SDS011;410;48.954;9.474;2024-01-15T06:16:47;28.48;;;13.85;;
846;SDS011;410;48.954;9.474;2024-01-15T06:18:49;35.17;;;18.13;;
846;SDS011;410;48.954;9.474;2024-01-15T06:20:53;27.17;;;11.75;;
846;SDS011;410;48.954;9.474;2024-01-15T06:22:56;22.50;;;11.15;;
846;SDS011;410;48.954;9.474;2024-01-15T06:24:59;19.83;;;10.02;;
846;SDS011;410;48.954;9.474;2024-01-15T06:27:02;21.98;;;9.85;;
846;SDS011;410;48.954;9.474;2024-01-15T06:29:05;18.25;;;8.75;;
846;SDS011;410;48.954;9.474;2024-01-15T06:31:11;20.52;;;9.57;;
846;SDS011;410;48.954;9.474;2024-01-15T06:33:15;18.10;;;9.23;;
846;SDS011;410;48.954;9.474;2024-01-15T06:35:18;19.23;;;8.80;;
846;SDS011;410;48.954;9.474;2024-01-15T06:37:24;15.30;;;7.97;;
846;SDS011;410;48.954;9.474;2024-01-15T06:39:27;19.95;;;9.40;;
846;SDS011;410;48.954;9.474;2024-01-15T06:41:30;17.90;;;8.75;;
846;SDS011;410;48.954;9.474;2024-01-15T06:43:33;18.02;;;9.45;;
846;SDS011;410;48.954;9.474;2024-01-15T06:45:36;20.48;;;9.40;;
846;SDS011;410;48.954;9.474;2024-01-15T06:47:41;20.95;;;11.32;;
846;SDS011;410;48.954;9.474;2024-01-15T06:49:44;17.83;;;10.20;;
846;SDS011;410;48.954;9.474;2024-01-15T06:51:47;24.92;;;12.63;;
846;SDS011;410;48.954;9.474;2024-01-15T06:53:51;18.30;;;9.23;;
846;SDS011;410;48.954;9.474;2024-01-15T06:55:54;21.33;;;10.20;;
846;SDS011;410;48.954;9.474;2024-01-15T06:57:57;21.00;;;9.45;;
846;SDS011;410;48.954;9.474;2024-01-15T07:00:00;17.52;;;9.05;;
846;SDS011;410;48.954;9.474;2024-01-15T07:02:06;16.63;;;9.02;;
846;SDS011;410;48.954;9.474;2024-01-15T07:04:11;19.27;;;9.85;;
846;SDS011;410;48.954;9.474;2024-01-15T07:06:15;23.10;;;10.48;;
846;SDS011;410;48.954;9.474;2024-01-15T07:08:18;20.67;;;10.10;;
846;SDS011;410;48.954;9.474;2024-01-15T07:10:22;18.50;;;9.27;;
846;SDS011;410;48.954;9.474;2024-01-15T07:12:25;18.52;;;9.23;;
846;SDS011;410;48.954;9.474;2024-01-15T07:14:28;17.20;;;8.70;;
846;SDS011;410;48.954;9.474;2024-01-15T07:16:31;18.42;;;9.10;;
846;SDS011;410;48.954;9.474;2024-01-15T07:18:39;20.33;;;9.38;;
846;SDS011;410;48.954;9.474;2024-01-15T07:20:43;19.15;;;9.57;;
846;SDS011;410;48.954;9.474;2024-01-15T07:22:46;16.98;;;8.48;;
846;SDS011;410;48.954;9.474;2024-01-15T07:24:49;18.25;;;8.68;;
846;SDS011;410;48.954;9.474;2024-01-15T07:26:52;17.20;;;8.43;;
846;SDS011;410;48.954;9.474;2024-01-15T07:28:55;19.08;;;9.02;;
846;SDS011;410;48.954;9.474;2024-01-15T07:30:58;17.05;;;8.25;;
846;SDS011;410;48.954;9.474;2024-01-15T07:33:03;19.08;;;10.40;;
846;SDS011;410;48.954;9.474;2024-01-15T07:35:07;25.70;;;11.00;;
846;SDS011;410;48.954;9.474;2024-01-15T07:37:11;21.38;;;9.77;;
846;SDS011;410;48.954;9.474;2024-01-15T07:39:14;17.02;;;9.23;;
846;SDS011;410;48.954;9.474;2024-01-15T07:41:18;41.40;;;19.73;;
846;SDS011;410;48.954;9.474;2024-01-15T07:43:21;48.25;;;20.83;;
846;SDS011;410;48.954;9.474;2024-01-15T07:45:24;35.42;;;16.40;;
846;SDS011;410;48.954;9.474;2024-01-15T07:47:27;63.97;;;32.70;;
846;SDS011;410;48.954;9.474;2024-01-15T07:49:30;26.80;;;14.10;;
846;SDS011;410;48.954;9.474;2024-01-15T07:51:33;40.78;;;18.77;;
846;SDS011;410;48.954;9.474;2024-01-15T07:53:38;27.08;;;14.27;;
846;SDS011;410;48.954;9.474;2024-01-15T07:55:41;20.58;;;11.88;;
846;SDS011;410;48.954;9.474;2024-01-15T07:57:44;20.27;;;9.27;;
846;SDS011;410;48.954;9.474;2024-01-15T07:59:59;19.35;;;9.85;;
846;SDS011;410;48.954;9.474;2024-01-15T08:02:05;20.67;;;10.60;;
846;SDS011;410;48.954;9.474;2024-01-15T08:04:08;19.90;;;10.30;;
846;SDS011;410;48.954;9.474;2024-01-15T08:06:14;29.80;;;16.23;;
846;SDS011;410;48.954;9.474;2024-01-15T08:08:18;22.67;;;10.02;;
846;SDS011;410;48.954;9.474;2024-01-15T08:10:21;20.15;;;10.30;;
846;SDS011;410;48.954;9.474;2024-01-15T08:12:25;20.05;;;10.93;;
846;SDS011;410;48.954;9.474;2024-01-15T08:14:29;25.92;;;11.07;;
846;SDS011;410;48.954;9.474;2024-01-15T08:16:32;23.90;;;11.73;;
846;SDS011;410;48.954;9.474;2024-01-15T08:18:35;21.52;;;11.75;;
846;SDS011;410;48.954;9.474;2024-01-15T08:20:39;22.60;;;12.02;;
846;SDS011;410;48.954;9.474;2024-01-15T08:22:42;21.38;;;11.15;;
846;SDS011;410;48.954;9.474;2024-01-15T08:24:44;21.98;;;11.30;;
846;SDS011;410;48.954;9.474;2024-01-15T08:26:49;26.65;;;12.43;;
846;SDS011;410;48.954;9.474;2024-01-15T08:28:52;21.73;;;12.02;;
846;SDS011;410;48.954;9.474;2024-01-15T08:30:56;22.25;;;11.68;;
846;SDS011;410;48.954;9.474;2024-01-15T08:32:59;24.65;;;12.77;;
846;SDS011;410;48.954;9.474;2024-01-15T08:35:12;26.08;;;13.50;;
846;SDS011;410;48.954;9.474;2024-01-15T08:37:16;25.55;;;14.15;;
846;SDS011;410;48.954;9.474;2024-01-15T08:39:19;26.40;;;15.25;;
846;SDS011;410;48.954;9.474;2024-01-15T08:41:22;24.98;;;12.98;;
846;SDS011;410;48.954;9.474;2024-01-15T08:43:27;20.30;;;11.20;;
846;SDS011;410;48.954;9.474;2024-01-15T08:45:30;25.73;;;12.45;;
846;SDS011;410;48.954;9.474;2024-01-15T08:47:33;20.35;;;11.18;;
846;SDS011;410;48.954;9.474;2024-01-15T08:49:37;21.25;;;11.85;;
846;SDS011;410;48.954;9.474;2024-01-15T08:51:42;23.80;;;11.38;;
846;SDS011;410;48.954;9.474;2024-01-15T08:53:45;22.08;;;11.30;;
846;SDS011;410;48.954;9.474;2024-01-15T08:55:48;24.10;;;11.95;;
846;SDS011;410;48.954;9.474;2024-01-15T08:57:52;20.08;;;10.38;;
846;SDS011;410;48.954;9.474;2024-01-15T08:59:57;26.73;;;12.57;;
846;SDS011;410;48.954;9.474;2024-01-15T09:02:01;21.42;;;11.15;;
846;SDS011;410;48.954;9.474;2024-01-15T09:04:04;22.92;;;12.80;;
846;SDS011;410;48.954;9.474;2024-01-15T09:06:07;23.60;;;12.50;;
846;SDS011;410;48.954;9.474;2024-01-15T09:08:11;21.85;;;11.23;;
846;SDS011;410;48.954;9.474;2024-01-15T09:10:14;23.80;;;11.30;;
846;SDS011;410;48.954;9.474;2024-01-15T09:12:17;25.60;;;10.95;;
846;SDS011;410;48.954;9.474;2024-01-15T09:14:22;21.45;;;10.90;;
846;SDS011;410;48.954;9.474;2024-01-15T09:16:38;21.60;;;12.70;;
846;SDS011;410;48.954;9.474;2024-01-15T09:18:42;19.85;;;10.48;;
846;SDS011;410;48.954;9.474;2024-01-15T09:20:45;19.85;;;10.50;;
846;SDS011;410;48.954;9.474;2024-01-15T09:22:48;19.10;;;10.50;;
846;SDS011;410;48.954;9.474;2024-01-15T09:24:50;19.63;;;10.35;;
846;SDS011;410;48.954;9.474;2024-01-15T09:26:53;20.73;;;10.00;;
846;SDS011;410;48.954;9.474;2024-01-15T09:28:57;18.92;;;10.18;;
846;SDS011;410;48.954;9.474;2024-01-15T09:31:00;22.45;;;11.13;;
846;SDS011;410;48.954;9.474;2024-01-15T09:33:05;21.00;;;10.82;;
846;SDS011;410;48.954;9.474;2024-01-15T09:35:09;26.45;;;13.70;;
846;SDS011;410;48.954;9.474;2024-01-15T09:37:12;22.30;;;11.60;;
846;SDS011;410;48.954;9.474;2024-01-15T09:39:36;18.75;;;10.15;;
846;SDS011;410;48.954;9.474;2024-01-15T09:41:39;17.85;;;9.40;;
846;SDS011;410;48.954;9.474;2024-01-15T09:43:43;19.15;;;9.40;;
846;SDS011;410;48.954;9.474;2024-01-15T09:45:46;15.63;;;7.50;;
846;SDS011;410;48.954;9.474;2024-01-15T09:47:50;16.95;;;8.68;;
846;SDS011;410;48.954;9.474;2024-01-15T09:49:53;14.52;;;8.63;;
846;SDS011;410;48.954;9.474;2024-01-15T09:51:59;14.15;;;8.02;;
846;SDS011;410;48.954;9.474;2024-01-15T09:54:12;16.38;;;8.15;;
846;SDS011;410;48.954;9.474;2024-01-15T09:56:18;15.55;;;7.85;;
846;SDS011;410;48.954;9.474;2024-01-15T09:58:21;13.90;;;7.75;;
846;SDS011;410;48.954;9.474;2024-01-15T10:00:26;16.05;;;7.85;;
846;SDS011;410;48.954;9.474;2024-01-15T10:02:29;16.55;;;7.90;;
846;SDS011;410;48.954;9.474;2024-01-15T10:04:33;16.85;;;8.75;;
846;SDS011;410;48.954;9.474;2024-01-15T10:06:38;14.63;;;8.20;;
846;SDS011;410;48.954;9.474;2024-01-15T10:08:41;15.48;;;8.30;;
846;SDS011;410;48.954;9.474;2024-01-15T10:10:45;14.52;;;8.60;;
846;SDS011;410;48.954;9.474;2024-01-15T10:12:49;16.10;;;8.80;;
846;SDS011;410;48.954;9.474;2024-01-15T10:14:52;18.40;;;9.25;;
846;SDS011;410;48.954;9.474;2024-01-15T10:16:55;15.35;;;7.80;;
846;SDS011;410;48.954;9.474;2024-01-15T10:18:59;19.70;;;9.15;;
846;SDS011;410;48.954;9.474;2024-01-15T10:21:02;12.55;;;8.10;;
846;SDS011;410;48.954;9.474;2024-01-15T10:23:07;17.25;;;9.35;;
846;SDS011;410;48.954;9.474;2024-01-15T10:25:10;16.08;;;9.10;;
846;SDS011;410;48.954;9.474;2024-01-15T10:27:14;13.20;;;8.77;;
846;SDS011;410;48.954;9.474;2024-01-15T10:29:18;14.05;;;7.53;;
846;SDS011;410;48.954;9.474;2024-01-15T10:31:21;17.85;;;9.07;;
846;SDS011;410;48.954;9.474;2024-01-15T10:33:28;14.30;;;7.93;;
846;SDS011;410;48.954;9.474;2024-01-15T10:35:33;14.55;;;7.70;;
846;SDS011;410;48.954;9.474;2024-01-15T10:37:36;13.38;;;7.45;;
846;SDS011;410;48.954;9.474;2024-01-15T10:39:40;13.43;;;7.45;;
846;SDS011;410;48.954;9.474;2024-01-15T10:41:44;12.43;;;7.63;;
846;SDS011;410;48.954;9.474;2024-01-15T10:43:46;12.18;;;6.75;;
846;SDS011;410;48.954;9.474;2024-01-15T10:45:50;11.23;;;6.95;;
846;SDS011;410;48.954;9.474;2024-01-15T10:47:54;13.50;;;8.50;;
846;SDS011;410;48.954;9.474;2024-01-15T10:50:01;16.38;;;9.07;;
846;SDS011;410;48.954;9.474;2024-01-15T10:52:05;14.70;;;8.73;;
846;SDS011;410;48.954;9.474;2024-01-15T10:54:09;11.15;;;6.25;;
846;SDS011;410;48.954;9.474;2024-01-15T10:56:14;11.15;;;6.85;;
846;SDS011;410;48.954;9.474;2024-01-15T10:58:18;9.50;;;5.47;;
846;SDS011;410;48.954;9.474;2024-01-15T11:00:24;11.73;;;6.22;;
846;SDS011;410;48.954;9.474;2024-01-15T11:02:27;8.57;;;5.00;;
846;SDS011;410;48.954;9.474;2024-01-15T11:04:31;11.88;;;6.30;;
846;SDS011;410;48.954;9.474;2024-01-15T11:06:41;9.40;;;5.72;;
846;SDS011;410;48.954;9.474;2024-01-15T11:08:46;8.27;;;4.90;;
846;SDS011;410;48.954;9.474;2024-01-15T11:10:51;9.25;;;4.55;;
846;SDS011;410;48.954;9.474;2024-01-15T11:12:56;7.18;;;4.20;;
846;SDS011;410;48.954;9.474;2024-01-15T11:15:01;9.45;;;4.70;;
846;SDS011;410;48.954;9.474;2024-01-15T11:17:06;10.75;;;6.47;;
846;SDS011;410;48.954;9.474;2024-01-15T11:19:12;8.73;;;4.93;;
846;SDS011;410;48.954;9.474;2024-01-15T11:21:22;7.90;;;4.30;;
846;SDS011;410;48.954;9.474;2024-01-15T11:23:41;6.55;;;4.35;;
846;SDS011;410;48.954;9.474;2024-01-15T11:25:45;6.65;;;4.63;;
846;SDS011;410;48.954;9.474;2024-01-15T11:27:49;7.68;;;4.55;;
846;SDS011;410;48.954;9.474;2024-01-15T11:30:04;32.95;;;19.17;;
846;SDS011;410;48.954;9.474;2024-01-15T11:32:08;10.55;;;5.57;;
846;SDS011;410;48.954;9.474;2024-01-15T11:34:12;10.23;;;5.43;;
846;SDS011;410;48.954;9.474;2024-01-15T11:36:14;10.55;;;5.68;;
846;SDS011;410;48.954;9.474;2024-01-15T11:38:26;9.30;;;5.90;;
846;SDS011;410;48.954;9.474;2024-01-15T11:40:36;8.63;;;6.00;;
846;SDS011;410;48.954;9.474;2024-01-15T11:42:41;8.15;;;5.20;;
846;SDS011;410;48.954;9.474;2024-01-15T11:44:44;10.68;;;5.53;;
846;SDS011;410;48.954;9.474;2024-01-15T11:46:50;11.07;;;6.22;;
846;SDS011;410;48.954;9.474;2024-01-15T11:49:03;8.93;;;5.85;;
846;SDS011;410;48.954;9.474;2024-01-15T11:51:07;10.50;;;6.65;;
846;SDS011;410;48.954;9.474;2024-01-15T11:53:18;13.35;;;8.77;;
846;SDS011;410;48.954;9.474;2024-01-15T11:55:27;14.52;;;8.57;;
846;SDS011;410;48.954;9.474;2024-01-15T11:57:36;14.80;;;8.48;;
846;SDS011;410;48.954;9.474;2024-01-15T11:59:42;15.98;;;8.60;;
846;SDS011;410;48.954;9.474;2024-01-15T12:01:45;10.93;;;6.28;;
846;SDS011;410;48.954;9.474;2024-01-15T12:03:50;10.75;;;6.28;;
846;SDS011;410;48.954;9.474;2024-01-15T12:05:53;9.48;;;6.47;;
846;SDS011;410;48.954;9.474;2024-01-15T12:07:57;8.85;;;6.00;;
846;SDS011;410;48.954;9.474;2024-01-15T12:09:59;10.52;;;6.30;;
846;SDS011;410;48.954;9.474;2024-01-15T12:12:03;10.63;;;5.40;;
846;SDS011;410;48.954;9.474;2024-01-15T12:14:10;9.68;;;5.88;;
846;SDS011;410;48.954;9.474;2024-01-15T12:16:14;11.90;;;8.13;;
846;SDS011;410;48.954;9.474;2024-01-15T12:18:17;9.13;;;5.90;;
846;SDS011;410;48.954;9.474;2024-01-15T12:20:23;13.40;;;5.85;;
846;SDS011;410;48.954;9.474;2024-01-15T12:22:26;10.52;;;6.05;;
846;SDS011;410;48.954;9.474;2024-01-15T12:24:35;8.80;;;5.05;;
846;SDS011;410;48.954;9.474;2024-01-15T12:26:38;10.65;;;5.93;;
846;SDS011;410;48.954;9.474;2024-01-15T12:28:42;11.25;;;6.60;;
846;SDS011;410;48.954;9.474;2024-01-15T12:30:46;9.60;;;6.22;;
846;SDS011;410;48.954;9.474;2024-01-15T12:32:51;12.02;;;7.15;;
846;SDS011;410;48.954;9.474;2024-01-15T12:34:55;10.50;;;5.90;;
846;SDS011;410;48.954;9.474;2024-01-15T12:37:00;11.30;;;6.45;;
846;SDS011;410;48.954;9.474;2024-01-15T12:39:03;12.65;;;6.85;;
846;SDS011;410;48.954;9.474;2024-01-15T12:41:06;9.93;;;5.80;;
846;SDS011;410;48.954;9.474;2024-01-15T12:43:09;9.52;;;6.03;;
846;SDS011;410;48.954;9.474;2024-01-15T12:45:13;8.23;;;6.10;;
846;SDS011;410;48.954;9.474;2024-01-15T12:47:15;11.70;;;6.15;;
846;SDS011;410;48.954;9.474;2024-01-15T12:49:20;10.15;;;6.18;;
846;SDS011;410;48.954;9.474;2024-01-15T12:51:24;10.27;;;6.00;;
846;SDS011;410;48.954;9.474;2024-01-15T12:53:29;7.93;;;5.03;;
846;SDS011;410;48.954;9.474;2024-01-15T12:55:33;10.18;;;5.50;;
846;SDS011;410;48.954;9.474;2024-01-15T12:57:37;10.02;;;6.40;;